Time;durP1;ratioP1;P1;durP2;ratioP2;P2;SDS_P1;SDS_P2;PMS_P1;PMS_P2;Temp;Humidity;BMP_temperature;BMP_pressure;BME280_temperature;BME280_humidity;BME280_pressure;Samples;Min_cycle;Max_cycle;Signal;HPM_P1;HPM_P2
2023/10/15 00:01:28;;;;;;;6.32;1.17;;;7.90;99.90;;;;;;5037775;28;20116;-73
2023/10/15 00:03:54;;;;;;;5.20;1.15;;;7.80;99.90;;;;;;5042000;28;20120;-73
2023/10/15 00:06:20;;;;;;;6.82;1.20;;;7.80;99.90;;;;;;5056269;28;20126;-73
2023/10/15 00:08:45;;;;;;;7.00;1.48;;;7.80;99.90;;;;;;5033882;28;20189;-73
2023/10/15 00:11:13;;;;;;;6.25;1.60;;;7.80;99.90;;;;;;5037736;28;20407;-73
2023/10/15 00:13:38;;;;;;;11.70;2.28;;;7.80;99.90;;;;;;5039317;28;20037;-73
2023/10/15 00:16:04;;;;;;;5.55;0.90;;;7.80;99.90;;;;;;5035880;28;20052;-73
2023/10/15 00:18:30;;;;;;;6.13;1.30;;;7.80;99.90;;;;;;5037670;28;20410;-74
2023/10/15 00:21:08;;;;;;;7.00;1.27;;;7.70;99.90;;;;;;5021088;28;20260;-74
2023/10/15 00:23:36;;;;;;;5.13;1.10;;;7.80;99.90;;;;;;5022205;28;20128;-73
2023/10/15 00:26:04;;;;;;;2.65;0.80;;;7.80;99.90;;;;;;5038619;28;20055;-73
2023/10/15 00:28:33;;;;;;;4.03;1.00;;;7.70;99.90;;;;;;5038268;28;20048;-73
2023/10/15 00:31:08;;;;;;;3.83;0.70;;;7.70;99.90;;;;;;5026510;28;20036;-74
2023/10/15 00:33:34;;;;;;;6.38;0.90;;;7.70;99.90;;;;;;5022544;28;20143;-73
2023/10/15 00:36:00;;;;;;;6.88;1.52;;;7.80;99.90;;;;;;5038828;28;20041;-74
2023/10/15 00:38:26;;;;;;;5.00;1.10;;;7.80;99.90;;;;;;5036984;28;20129;-74
2023/10/15 00:41:00;;;;;;;5.88;1.23;;;7.80;99.90;;;;;;5025917;28;20136;-74
2023/10/15 00:43:27;;;;;;;5.38;1.05;;;7.70;99.90;;;;;;5019670;28;20111;-74
2023/10/15 00:45:53;;;;;;;4.97;1.40;;;7.70;99.90;;;;;;5026976;28;20052;-73
2023/10/15 00:48:36;;;;;;;4.10;1.17;;;7.70;99.90;;;;;;5042856;28;20041;-73
2023/10/15 00:51:11;;;;;;;4.93;0.93;;;7.70;99.90;;;;;;5026222;28;20091;-73
2023/10/15 00:53:47;;;;;;;4.93;1.13;;;7.70;99.90;;;;;;5030879;28;20045;-73
2023/10/15 00:56:15;;;;;;;5.53;0.90;;;7.80;99.90;;;;;;5038403;28;20479;-73
2023/10/15 01:01:21;;;;;;;5.85;1.00;;;7.80;99.90;;;;;;5040926;28;21680;-73
2023/10/15 01:03:53;;;;;;;5.65;1.17;;;7.80;99.90;;;;;;5041303;28;20132;-73
2023/10/15 01:06:45;;;;;;;5.90;1.38;;;7.80;99.90;;;;;;5043447;28;20076;-73
2023/10/15 01:09:27;;;;;;;4.55;0.93;;;7.80;99.90;;;;;;5038777;28;20045;-73
2023/10/15 01:11:56;;;;;;;4.80;0.73;;;7.80;99.90;;;;;;5037015;28;20124;-73
2023/10/15 01:14:31;;;;;;;5.47;1.07;;;7.80;99.90;;;;;;5058722;28;20081;-73
2023/10/15 01:16:59;;;;;;;5.38;1.10;;;7.80;99.90;;;;;;5043751;28;20308;-73
2023/10/15 01:19:32;;;;;;;6.45;1.52;;;7.80;99.90;;;;;;5027768;28;20852;-73
2023/10/15 01:22:01;;;;;;;6.45;1.15;;;7.80;99.90;;;;;;5043201;28;20049;-74
2023/10/15 01:24:28;;;;;;;5.88;1.20;;;7.80;99.90;;;;;;5043114;28;20049;-73
2023/10/15 01:29:38;;;;;;;4.63;0.85;;;7.70;99.90;;;;;;5043019;28;20048;-73
2023/10/15 01:32:12;;;;;;;4.00;0.82;;;7.70;99.90;;;;;;5022935;28;20610;-73
2023/10/15 01:35:01;;;;;;;4.88;0.88;;;7.70;99.90;;;;;;5019830;28;20407;-73
2023/10/15 01:37:28;;;;;;;4.22;0.77;;;7.70;99.90;;;;;;5043698;28;20045;-74
2023/10/15 01:40:24;;;;;;;5.55;1.10;;;7.80;99.90;;;;;;5044047;28;20053;-73
2023/10/15 01:42:53;;;;;;;4.05;1.10;;;7.70;99.90;;;;;;5039956;28;20104;-74
2023/10/15 01:45:30;;;;;;;7.47;1.10;;;7.60;99.90;;;;;;5034455;28;20549;-73
2023/10/15 01:48:04;;;;;;;5.10;1.38;;;7.60;99.90;;;;;;5037546;28;20463;-73
2023/10/15 01:53:15;;;;;;;4.55;0.90;;;7.50;99.90;;;;;;5037514;28;20593;-74
2023/10/15 01:55:53;;;;;;;3.90;0.82;;;7.50;99.90;;;;;;5040311;28;20049;-74
2023/10/15 01:58:32;;;;;;;6.22;1.50;;;7.40;99.90;;;;;;5018918;28;20071;-73
2023/10/15 02:01:20;;;;;;;5.03;1.30;;;7.40;99.90;;;;;;5041534;28;20143;-73
2023/10/15 02:03:47;;;;;;;5.40;1.10;;;7.40;99.90;;;;;;5055670;28;20095;-74
2023/10/15 02:06:19;;;;;;;5.22;1.20;;;7.30;99.90;;;;;;5027365;28;20109;-73
2023/10/15 02:08:46;;;;;;;3.78;1.20;;;7.20;99.90;;;;;;5037028;28;20522;-73
2023/10/15 02:11:21;;;;;;;7.03;1.38;;;7.20;99.90;;;;;;5043822;28;20549;-77
2023/10/15 02:13:51;;;;;;;6.60;1.35;;;7.20;99.90;;;;;;5043235;28;20052;-76
2023/10/15 02:16:29;;;;;;;4.90;1.17;;;7.10;99.90;;;;;;5033048;28;20496;-76
2023/10/15 02:18:58;;;;;;;4.97;1.10;;;7.10;99.90;;;;;;5017406;28;20037;-76
2023/10/15 02:21:25;;;;;;;5.07;1.00;;;7.10;99.90;;;;;;5018750;28;20456;-76
2023/10/15 02:23:51;;;;;;;3.83;1.10;;;7.10;99.90;;;;;;5035613;28;20100;-76
2023/10/15 02:26:19;;;;;;;5.75;1.30;;;7.00;99.90;;;;;;5030073;28;20037;-76
2023/10/15 02:28:47;;;;;;;9.60;1.00;;;7.10;99.90;;;;;;5027252;28;20116;-77
2023/10/15 02:31:20;;;;;;;7.30;1.50;;;7.00;99.90;;;;;;5012486;28;20075;-76
2023/10/15 02:33:46;;;;;;;5.07;0.80;;;7.00;99.90;;;;;;5029517;28;20060;-76
2023/10/15 02:36:16;;;;;;;7.03;1.63;;;7.00;99.90;;;;;;5046603;28;20038;-76
2023/10/15 02:38:55;;;;;;;4.80;1.23;;;7.10;99.90;;;;;;5035594;28;20041;-76
2023/10/15 02:41:30;;;;;;;4.05;0.80;;;7.10;99.90;;;;;;5015474;28;20561;-76
2023/10/15 02:43:57;;;;;;;5.30;1.25;;;7.10;99.90;;;;;;5040465;28;20049;-76
2023/10/15 02:46:35;;;;;;;7.50;1.10;;;7.10;99.90;;;;;;5039818;28;20037;-76
2023/10/15 02:49:01;;;;;;;4.47;1.15;;;7.10;99.90;;;;;;5015080;28;20081;-76
2023/10/15 02:51:27;;;;;;;4.63;0.98;;;7.10;99.90;;;;;;5042536;28;20091;-76
2023/10/15 02:54:01;;;;;;;6.22;1.85;;;7.10;99.90;;;;;;5044254;28;20733;-76
2023/10/15 02:56:28;;;;;;;4.28;0.70;;;7.10;99.90;;;;;;5034680;28;20041;-76
2023/10/15 02:58:54;;;;;;;4.40;1.10;;;7.10;99.90;;;;;;5046908;28;20458;-76
2023/10/15 03:01:20;;;;;;;6.18;1.10;;;7.10;99.90;;;;;;5027576;28;20037;-76
2023/10/15 03:03:50;;;;;;;5.38;1.20;;;7.10;99.90;;;;;;5028812;28;20076;-76
2023/10/15 03:06:28;;;;;;;5.55;1.10;;;7.00;99.90;;;;;;5019023;28;20051;-76
2023/10/15 03:08:56;;;;;;;4.93;1.08;;;7.00;99.90;;;;;;5034456;28;20057;-76
2023/10/15 03:11:31;;;;;;;4.93;0.95;;;6.90;99.90;;;;;;5056985;28;20070;-76
2023/10/15 03:14:00;;;;;;;5.28;1.27;;;6.90;99.90;;;;;;5016605;28;20100;-76
2023/10/15 03:16:31;;;;;;;3.67;0.82;;;6.80;99.90;;;;;;5022952;28;20037;-76
2023/10/15 03:19:06;;;;;;;3.25;0.82;;;6.80;99.90;;;;;;5022844;28;20477;-76
2023/10/15 03:21:37;;;;;;;6.20;1.15;;;6.70;99.90;;;;;;5036602;28;20052;-76
2023/10/15 03:24:04;;;;;;;;;;;6.60;99.90;;;;;;5035600;28;20053;-73
2023/10/15 03:26:32;;;;;;;4.30;0.98;;;6.50;99.90;;;;;;5037274;28;19921;-73
2023/10/15 03:29:07;;;;;;;3.33;0.82;;;6.40;99.90;;;;;;5039995;28;20577;-73
2023/10/15 03:31:45;;;;;;;2.85;0.80;;;6.40;99.90;;;;;;5023067;28;20251;-74
2023/10/15 03:37:13;;;;;;;4.32;1.13;;;6.30;99.90;;;;;;5038505;28;20824;-73
2023/10/15 03:42:09;;;;;;;6.10;1.25;;;6.20;99.90;;;;;;5037828;28;20053;-73
2023/10/15 03:44:44;;;;;;;4.85;1.02;;;6.30;99.90;;;;;;5037710;28;20059;-74
2023/10/15 03:47:10;;;;;;;4.57;1.20;;;6.30;99.90;;;;;;5037548;28;20049;-73
2023/10/15 03:49:36;;;;;;;5.53;1.13;;;6.20;99.90;;;;;;5034370;28;20029;-73
2023/10/15 03:52:08;;;;;;;3.15;1.00;;;6.20;99.90;;;;;;5040450;28;20052;-73
2023/10/15 03:54:37;;;;;;;5.57;1.02;;;6.20;99.90;;;;;;5038548;28;20083;-73
2023/10/15 03:57:06;;;;;;;3.97;1.10;;;6.20;99.90;;;;;;5039855;28;20041;-73
2023/10/15 03:59:53;;;;;;;7.40;1.35;;;6.10;99.90;;;;;;5043357;28;20044;-73
2023/10/15 04:02:23;;;;;;;5.03;0.85;;;6.10;99.90;;;;;;5015195;28;20049;-73
2023/10/15 04:05:08;;;;;;;4.28;1.30;;;6.10;99.90;;;;;;5025747;28;20137;-73
2023/10/15 04:07:48;;;;;;;6.32;1.20;;;6.00;99.90;;;;;;5028202;28;20046;-73
2023/10/15 04:10:14;;;;;;;4.80;1.20;;;6.00;99.90;;;;;;5027425;28;20376;-73
2023/10/15 04:12:43;;;;;;;6.95;1.67;;;6.00;99.90;;;;;;5026031;28;20049;-73
2023/10/15 04:15:21;;;;;;;6.75;1.05;;;6.00;99.90;;;;;;5027910;28;20522;-73
2023/10/15 04:17:51;;;;;;;5.20;1.13;;;6.00;99.90;;;;;;5029214;28;20044;-73
2023/10/15 04:20:26;;;;;;;7.22;1.38;;;6.00;99.90;;;;;;5026882;28;20076;-74
2023/10/15 04:22:53;;;;;;;5.82;1.20;;;6.10;99.90;;;;;;5023983;28;20087;-77
2023/10/15 04:25:26;;;;;;;;;;;6.10;99.90;;;;;;5028828;28;20041;-76
2023/10/15 04:27:54;;;;;;;5.82;1.33;;;6.20;99.90;;;;;;5036060;28;19928;-76
2023/10/15 04:30:20;;;;;;;5.63;1.17;;;6.20;99.90;;;;;;5037071;28;20598;-76
2023/10/15 04:32:47;;;;;;;10.32;1.48;;;6.20;99.90;;;;;;5039389;28;20598;-76
2023/10/15 04:35:20;;;;;;;3.72;0.95;;;6.30;99.90;;;;;;5035932;28;20049;-76
2023/10/15 04:37:48;;;;;;;4.60;0.90;;;6.30;99.90;;;;;;5024566;28;20073;-76
2023/10/15 04:40:16;;;;;;;4.32;0.88;;;6.30;99.90;;;;;;5026304;28;20500;-76
2023/10/15 04:42:48;;;;;;;5.20;1.05;;;6.40;99.90;;;;;;5028581;28;20052;-76
2023/10/15 04:45:21;;;;;;;3.08;0.60;;;6.30;99.90;;;;;;5051236;28;20131;-77
2023/10/15 04:47:59;;;;;;;2.28;0.73;;;6.30;99.90;;;;;;5035739;28;20107;-76
2023/10/15 04:50:32;;;;;;;3.13;0.82;;;6.20;99.90;;;;;;5031154;28;20551;-76
2023/10/15 04:53:31;;;;;;;5.15;0.93;;;6.30;99.90;;;;;;5036053;28;20084;-76
2023/10/15 04:55:52;;;;;;;3.70;0.90;;;6.30;99.90;;;;;;5061637;28;20507;-76
2023/10/15 04:58:18;;;;;;;4.45;0.98;;;6.30;99.90;;;;;;5055229;28;20126;-76
2023/10/15 05:00:48;;;;;;;4.78;0.77;;;6.30;99.90;;;;;;5042286;28;20493;-77
2023/10/15 05:03:15;;;;;;;4.78;0.95;;;6.30;99.90;;;;;;5026659;28;20124;-77
2023/10/15 05:05:44;;;;;;;5.95;1.00;;;6.40;99.90;;;;;;5046613;28;20159;-77
2023/10/15 05:08:11;;;;;;;5.25;0.70;;;6.40;99.90;;;;;;5040634;28;20044;-77
2023/10/15 05:10:44;;;;;;;4.15;0.85;;;6.40;99.90;;;;;;5034215;28;20042;-76
2023/10/15 05:13:11;;;;;;;5.45;1.05;;;6.50;99.90;;;;;;5030592;28;21227;-76
2023/10/15 05:15:37;;;;;;;5.75;1.38;;;6.50;99.90;;;;;;5038754;28;20128;-76
2023/10/15 05:18:04;;;;;;;5.00;0.93;;;6.50;99.90;;;;;;5038610;28;20049;-76
2023/10/15 05:20:31;;;;;;;5.55;0.80;;;6.50;99.90;;;;;;5037682;28;20041;-76
2023/10/15 05:22:56;;;;;;;6.72;1.05;;;6.50;99.90;;;;;;5038260;28;20057;-76
2023/10/15 05:25:22;;;;;;;4.03;1.02;;;6.60;99.90;;;;;;5036539;28;20037;-74
2023/10/15 05:27:51;;;;;;;6.18;1.10;;;6.50;99.90;;;;;;5040984;28;20138;-74
2023/10/15 05:30:18;;;;;;;5.93;0.98;;;6.60;99.90;;;;;;5043167;28;20048;-74
2023/10/15 05:32:44;;;;;;;4.00;1.00;;;6.60;99.90;;;;;;5036418;28;20041;-74
2023/10/15 05:35:10;;;;;;;5.97;1.08;;;6.60;99.90;;;;;;5047937;28;20115;-74
2023/10/15 05:37:39;;;;;;;2.78;0.70;;;6.60;99.90;;;;;;5017106;28;20127;-74
2023/10/15 05:40:06;;;;;;;5.05;0.80;;;6.60;99.90;;;;;;5030348;28;20049;-74
2023/10/15 05:42:33;;;;;;;6.32;0.98;;;6.70;99.90;;;;;;5043613;28;20098;-74
2023/10/15 05:45:00;;;;;;;4.32;1.05;;;6.70;99.90;;;;;;5033717;28;20050;-74
2023/10/15 05:47:26;;;;;;;4.85;0.75;;;6.70;99.90;;;;;;5031776;28;20574;-74
2023/10/15 05:49:54;;;;;;;5.38;0.88;;;6.70;99.90;;;;;;5041462;28;20060;-74
2023/10/15 05:52:19;;;;;;;4.90;0.85;;;6.70;99.90;;;;;;5043696;28;20056;-74
2023/10/15 05:54:47;;;;;;;4.35;1.00;;;6.70;99.90;;;;;;5035127;28;20042;-74
2023/10/15 05:57:13;;;;;;;5.28;0.93;;;6.70;99.90;;;;;;5034298;28;20415;-74
2023/10/15 05:59:39;;;;;;;5.28;0.80;;;6.60;99.90;;;;;;5035836;28;20041;-74
2023/10/15 06:02:05;;;;;;;4.13;0.88;;;6.60;99.90;;;;;;5031816;28;20048;-74
2023/10/15 06:04:31;;;;;;;3.78;0.63;;;6.60;99.90;;;;;;5030990;28;20540;-74
2023/10/15 06:06:57;;;;;;;3.95;0.70;;;6.60;99.90;;;;;;5044580;28;20398;-74
2023/10/15 06:09:23;;;;;;;3.33;0.63;;;6.60;99.90;;;;;;5036055;28;20045;-74
2023/10/15 06:11:52;;;;;;;4.90;0.98;;;6.60;99.90;;;;;;5034385;28;20511;-72
2023/10/15 06:14:18;;;;;;;4.30;0.85;;;6.60;99.90;;;;;;5039948;28;20040;-73
2023/10/15 06:16:44;;;;;;;4.00;1.10;;;6.60;99.90;;;;;;5023429;28;20099;-73
2023/10/15 06:19:10;;;;;;;5.38;1.25;;;6.60;99.90;;;;;;5018654;28;20041;-73
2023/10/15 06:21:36;;;;;;;5.15;1.05;;;6.60;99.90;;;;;;5041898;28;20124;-73
2023/10/15 06:24:02;;;;;;;5.55;0.70;;;6.60;99.90;;;;;;5014251;28;20072;-73
2023/10/15 06:26:28;;;;;;;4.47;0.80;;;6.60;99.90;;;;;;5037573;28;20158;-73
2023/10/15 06:28:54;;;;;;;3.80;0.63;;;6.60;99.90;;;;;;5046609;28;20270;-72
2023/10/15 06:31:20;;;;;;;5.28;0.80;;;6.60;99.90;;;;;;5042755;28;20037;-73
2023/10/15 06:33:45;;;;;;;3.22;0.50;;;6.60;99.90;;;;;;5033806;28;20059;-73
2023/10/15 06:36:11;;;;;;;1.98;0.60;;;6.60;99.90;;;;;;5034295;28;20107;-73
2023/10/15 06:38:37;;;;;;;3.72;0.70;;;6.60;99.90;;;;;;5041963;28;20044;-73
2023/10/15 06:41:08;;;;;;;3.60;0.73;;;6.70;99.90;;;;;;5030557;28;20080;-73
2023/10/15 06:43:37;;;;;;;3.63;0.70;;;6.60;99.90;;;;;;5020527;28;20049;-73
2023/10/15 06:46:07;;;;;;;2.33;0.40;;;6.60;99.90;;;;;;5031919;28;20218;-73
2023/10/15 06:48:35;;;;;;;4.70;0.70;;;6.60;99.90;;;;;;5040584;28;20183;-73
2023/10/15 06:51:07;;;;;;;2.95;0.60;;;6.60;99.90;;;;;;5030184;28;20434;-73
2023/10/15 06:53:36;;;;;;;1.92;0.68;;;6.60;99.90;;;;;;5036664;28;20045;-73
2023/10/15 06:56:06;;;;;;;2.47;0.75;;;6.60;99.90;;;;;;5017163;28;20511;-73
2023/10/15 06:58:35;;;;;;;3.80;0.60;;;6.60;99.90;;;;;;5026919;28;20053;-73
2023/10/15 07:01:02;;;;;;;2.35;0.70;;;6.60;99.90;;;;;;5030943;28;20167;-73
2023/10/15 07:03:28;;;;;;;3.88;0.65;;;6.60;99.90;;;;;;5022261;28;20037;-74
2023/10/15 07:05:54;;;;;;;4.30;0.70;;;6.60;99.90;;;;;;5040744;28;20278;-73
2023/10/15 07:08:20;;;;;;;4.38;0.65;;;6.60;99.90;;;;;;5038735;28;20510;-73
2023/10/15 07:10:46;;;;;;;7.05;0.65;;;6.60;99.90;;;;;;5037328;28;20519;-74
2023/10/15 07:13:12;;;;;;;1.15;0.38;;;6.60;99.90;;;;;;5020430;28;20053;-73
2023/10/15 07:15:38;;;;;;;2.40;0.47;;;6.60;99.90;;;;;;5038456;28;20041;-73
2023/10/15 07:18:04;;;;;;;4.60;0.45;;;6.60;99.90;;;;;;5019182;28;20037;-75
2023/10/15 07:20:30;;;;;;;3.05;0.45;;;6.60;99.90;;;;;;5037040;28;20041;-76
2023/10/15 07:23:00;;;;;;;2.65;0.70;;;6.60;99.90;;;;;;5033004;28;20362;-76
2023/10/15 07:25:28;;;;;;;4.13;0.65;;;6.60;99.90;;;;;;5021559;28;20178;-76
2023/10/15 07:28:01;;;;;;;4.13;0.52;;;6.60;99.90;;;;;;5041072;28;20063;-76
2023/10/15 07:30:28;;;;;;;4.72;0.73;;;6.70;99.90;;;;;;5037956;28;20490;-73
2023/10/15 07:32:57;;;;;;;4.15;0.80;;;6.70;99.90;;;;;;5019542;28;20044;-74
2023/10/15 07:35:25;;;;;;;4.37;0.80;;;6.70;99.90;;;;;;5023803;28;20501;-74
2023/10/15 07:37:52;;;;;;;2.92;0.50;;;6.70;99.90;;;;;;5036144;28;20060;-74
2023/10/15 07:40:23;;;;;;;5.90;0.85;;;6.70;99.90;;;;;;5037130;28;20045;-74
2023/10/15 07:42:52;;;;;;;4.60;1.15;;;6.80;99.90;;;;;;5051518;28;20938;-74
2023/10/15 07:45:19;;;;;;;3.83;1.25;;;6.80;99.90;;;;;;5035162;28;20053;-74
2023/10/15 07:47:46;;;;;;;5.10;1.00;;;6.80;99.90;;;;;;5038914;28;20059;-74
2023/10/15 07:50:18;;;;;;;4.10;0.75;;;6.80;99.90;;;;;;5036270;28;20053;-74
2023/10/15 07:52:44;;;;;;;5.30;1.80;;;6.80;99.90;;;;;;5038396;28;20045;-74
2023/10/15 07:55:13;;;;;;;5.65;1.05;;;6.90;99.90;;;;;;5025455;28;20289;-74
2023/10/15 07:57:39;;;;;;;4.53;0.82;;;6.80;99.90;;;;;;5041016;28;20060;-74
2023/10/15 08:00:22;;;;;;;5.15;1.00;;;6.80;99.90;;;;;;5024475;28;20037;-76
2023/10/15 08:02:52;;;;;;;3.78;0.88;;;6.80;99.90;;;;;;5023251;28;20056;-76
2023/10/15 08:05:21;;;;;;;3.80;0.70;;;6.80;99.90;;;;;;5041377;28;20080;-75
2023/10/15 08:07:51;;;;;;;4.70;0.88;;;6.90;99.90;;;;;;5019371;28;20510;-76
2023/10/15 08:10:20;;;;;;;6.32;0.93;;;7.10;99.90;;;;;;5023847;28;20045;-76
2023/10/15 08:12:48;;;;;;;3.13;0.80;;;7.30;99.90;;;;;;5038394;28;20059;-75
2023/10/15 08:15:14;;;;;;;4.82;0.82;;;7.50;99.90;;;;;;5038752;28;20504;-75
2023/10/15 08:17:40;;;;;;;5.10;0.75;;;7.80;99.90;;;;;;5038884;28;20048;-75
2023/10/15 08:20:09;;;;;;;3.00;0.68;;;7.90;99.90;;;;;;5040998;28;20056;-74
2023/10/15 08:22:35;;;;;;;3.72;0.80;;;8.00;99.90;;;;;;5038590;28;20052;-75
2023/10/15 08:25:01;;;;;;;4.03;0.80;;;8.00;99.90;;;;;;5039118;28;20483;-75
2023/10/15 08:27:27;;;;;;;3.65;0.65;;;8.00;99.90;;;;;;5039421;28;20048;-75
2023/10/15 08:29:53;;;;;;;4.55;0.70;;;8.10;99.90;;;;;;5056227;28;20174;-75
2023/10/15 08:32:20;;;;;;;8.98;0.90;;;8.10;99.90;;;;;;5055180;28;20048;-75
2023/10/15 08:34:47;;;;;;;8.43;1.05;;;8.10;99.90;;;;;;5037903;28;20124;-75
2023/10/15 08:37:13;;;;;;;3.53;0.65;;;8.20;99.90;;;;;;5039412;28;20083;-75
2023/10/15 08:39:40;;;;;;;2.80;0.88;;;8.30;99.90;;;;;;5025409;28;20048;-75
2023/10/15 08:42:24;;;;;;;3.28;0.60;;;8.40;99.90;;;;;;5019254;28;20171;-75
2023/10/15 08:44:55;;;;;;;6.03;1.10;;;8.50;99.90;;;;;;5035786;28;20048;-75
2023/10/15 08:47:21;;;;;;;6.00;1.10;;;8.50;99.90;;;;;;5051427;28;20041;-75
2023/10/15 08:49:51;;;;;;;2.80;0.95;;;8.50;99.90;;;;;;5031255;28;20033;-75
2023/10/15 08:52:17;;;;;;;2.58;0.57;;;8.60;99.90;;;;;;5023816;28;20056;-75
2023/10/15 08:54:45;;;;;;;3.13;0.60;;;8.60;99.90;;;;;;5038809;28;20098;-75
2023/10/15 08:57:11;;;;;;;3.83;0.73;;;8.60;99.90;;;;;;5040943;28;20037;-73
2023/10/15 08:59:38;;;;;;;4.00;0.80;;;8.70;99.90;;;;;;5037756;28;20079;-73
2023/10/15 09:02:08;;;;;;;6.82;1.20;;;8.80;99.90;;;;;;5022213;28;20110;-73
2023/10/15 09:04:34;;;;;;;6.05;1.00;;;8.90;99.90;;;;;;5023922;28;20048;-73
2023/10/15 09:07:09;;;;;;;3.55;0.65;;;8.90;99.90;;;;;;5041498;28;20044;-72
2023/10/15 09:09:35;;;;;;;4.18;0.60;;;8.90;99.90;;;;;;5035428;28;20116;-73
2023/10/15 09:12:01;;;;;;;4.60;0.93;;;8.90;99.90;;;;;;5040849;28;20068;-73
2023/10/15 09:14:44;;;;;;;5.53;0.75;;;8.90;99.90;;;;;;5027511;28;20483;-73
2023/10/15 09:17:15;;;;;;;5.13;0.90;;;8.90;99.90;;;;;;5059758;28;20040;-73
2023/10/15 09:19:42;;;;;;;6.38;1.20;;;8.80;99.90;;;;;;5023572;28;20499;-73
2023/10/15 09:22:14;;;;;;;5.97;1.00;;;8.90;99.90;;;;;;5045534;28;20045;-73
2023/10/15 09:24:45;;;;;;;3.65;0.77;;;9.00;99.90;;;;;;5037896;28;20049;-73
2023/10/15 09:27:13;;;;;;;4.43;1.10;;;9.00;99.90;;;;;;5058363;28;20045;-73
2023/10/15 09:29:40;;;;;;;5.90;1.20;;;9.10;99.90;;;;;;5035545;28;20063;-74
2023/10/15 09:32:06;;;;;;;5.70;1.10;;;9.10;99.90;;;;;;5031753;28;20079;-74
2023/10/15 09:34:37;;;;;;;6.43;1.17;;;9.20;99.90;;;;;;5037285;28;20037;-74
2023/10/15 09:37:07;;;;;;;6.38;1.05;;;9.30;99.90;;;;;;5039774;28;20044;-74
2023/10/15 09:39:34;;;;;;;4.40;0.87;;;9.40;99.90;;;;;;5023245;28;20042;-72
2023/10/15 09:42:06;;;;;;;6.85;1.42;;;9.40;99.90;;;;;;5044428;28;20518;-73
2023/10/15 09:44:32;;;;;;;5.20;1.00;;;9.40;99.90;;;;;;5036372;28;20053;-73
2023/10/15 09:47:02;;;;;;;8.95;1.45;;;9.40;99.90;;;;;;5044167;28;20048;-73
2023/10/15 09:49:33;;;;;;;6.35;1.10;;;9.40;99.90;;;;;;5040548;28;20041;-73
2023/10/15 09:52:02;;;;;;;4.97;1.13;;;9.60;99.90;;;;;;5038870;28;20210;-73
2023/10/15 09:54:30;;;;;;;7.00;1.10;;;9.70;99.90;;;;;;5028356;28;20041;-73
2023/10/15 09:56:57;;;;;;;7.90;1.42;;;9.80;99.90;;;;;;5039674;28;20045;-73
2023/10/15 09:59:24;;;;;;;8.25;1.25;;;9.80;99.90;;;;;;5026701;28;20056;-73
2023/10/15 10:01:53;;;;;;;5.07;1.02;;;9.80;99.90;;;;;;5040196;28;20044;-73
2023/10/15 10:04:51;;;;;;;5.30;1.10;;;9.80;99.90;;;;;;5023961;28;20084;-72
2023/10/15 10:07:55;;;;;;;6.85;1.40;;;9.80;99.90;;;;;;5036094;28;20038;-72
2023/10/15 10:10:37;;;;;;;7.68;2.00;;;9.80;99.90;;;;;;5028240;28;20150;-73
2023/10/15 10:13:28;;;;;;;10.48;4.10;;;9.80;99.90;;;;;;5037404;28;20052;-73
2023/10/15 10:15:58;;;;;;;6.22;1.50;;;9.70;99.90;;;;;;5037738;28;20114;-73
2023/10/15 10:18:27;;;;;;;7.97;1.42;;;9.70;99.90;;;;;;5038539;28;20267;-74
2023/10/15 10:20:55;;;;;;;7.32;2.15;;;9.60;99.90;;;;;;5042048;28;20063;-73
2023/10/15 10:23:22;;;;;;;18.55;14.40;;;9.50;99.90;;;;;;5039094;28;20434;-73
2023/10/15 10:25:58;;;;;;;5.75;1.70;;;9.50;99.90;;;;;;5023894;28;20041;-73
2023/10/15 10:28:25;;;;;;;8.38;1.23;;;9.50;99.90;;;;;;5025374;28;20044;-73
2023/10/15 10:30:54;;;;;;;5.68;1.05;;;9.40;99.90;;;;;;5026163;28;20130;-73
2023/10/15 10:33:42;;;;;;;6.65;1.30;;;9.40;99.90;;;;;;5041476;28;20099;-73
2023/10/15 10:36:27;;;;;;;7.75;1.35;;;9.50;99.90;;;;;;5055673;28;20633;-73
2023/10/15 10:39:13;;;;;;;7.53;1.35;;;9.50;99.90;;;;;;5034886;28;20080;-74
2023/10/15 10:41:49;;;;;;;5.70;0.98;;;9.60;99.90;;;;;;5040134;28;20625;-74
2023/10/15 10:44:24;;;;;;;5.72;1.35;;;9.70;99.90;;;;;;5053318;28;20396;-74
2023/10/15 10:46:56;;;;;;;6.72;1.50;;;9.60;99.90;;;;;;5042272;28;20049;-73
2023/10/15 10:49:41;;;;;;;8.05;1.50;;;9.60;99.90;;;;;;5033292;28;20446;-73
2023/10/15 10:52:17;;;;;;;6.13;1.42;;;9.50;99.90;;;;;;5053275;28;20049;-73
2023/10/15 10:54:45;;;;;;;9.82;1.80;;;9.50;99.90;;;;;;5039375;28;20045;-73
2023/10/15 10:57:11;;;;;;;7.40;1.48;;;9.50;99.90;;;;;;5039751;28;20490;-73
2023/10/15 10:59:39;;;;;;;8.98;1.35;;;9.50;99.90;;;;;;5039272;28;20041;-73
2023/10/15 11:02:06;;;;;;;6.63;1.60;;;9.60;99.90;;;;;;5037731;28;20052;-73
2023/10/15 11:04:33;;;;;;;5.82;1.88;;;9.60;99.90;;;;;;5039787;28;20041;-73
2023/10/15 11:07:03;;;;;;;6.13;1.30;;;9.60;99.90;;;;;;5026975;28;20597;-72
2023/10/15 11:09:29;;;;;;;9.70;1.63;;;9.70;99.90;;;;;;5022703;28;20045;-73
2023/10/15 11:11:56;;;;;;;6.60;1.50;;;9.70;99.90;;;;;;5024314;28;20036;-73
2023/10/15 11:14:24;;;;;;;7.18;1.30;;;9.80;99.90;;;;;;5039496;28;20049;-72
2023/10/15 11:16:55;;;;;;;7.35;1.52;;;9.80;99.90;;;;;;5057100;28;20423;-73
2023/10/15 11:19:32;;;;;;;5.25;1.33;;;9.80;99.90;;;;;;5023676;28;20037;-72
2023/10/15 11:21:58;;;;;;;6.88;1.33;;;9.90;99.90;;;;;;5039020;28;20345;-72
2023/10/15 11:24:26;;;;;;;7.82;1.52;;;9.90;99.90;;;;;;5022614;28;20052;-73
2023/10/15 11:26:57;;;;;;;6.80;1.15;;;9.90;99.90;;;;;;5023802;28;20049;-72
2023/10/15 11:29:24;;;;;;;5.13;1.30;;;9.90;99.90;;;;;;5033921;28;20518;-72
2023/10/15 11:31:57;;;;;;;9.52;1.45;;;10.00;99.90;;;;;;5041887;28;20041;-72
2023/10/15 11:34:25;;;;;;;7.60;1.15;;;10.10;99.90;;;;;;5022322;28;20144;-72
2023/10/15 11:36:55;;;;;;;4.97;1.15;;;10.10;99.90;;;;;;5023553;28;20033;-72
2023/10/15 11:39:25;;;;;;;6.47;1.48;;;10.20;99.90;;;;;;5039770;28;20041;-72
2023/10/15 11:41:56;;;;;;;5.68;1.05;;;10.20;99.90;;;;;;5038895;28;20048;-72
2023/10/15 11:44:31;;;;;;;7.40;0.93;;;10.20;99.90;;;;;;5038543;28;20091;-72
2023/10/15 11:47:01;;;;;;;4.43;0.90;;;10.20;99.90;;;;;;5022229;28;20049;-72
2023/10/15 11:49:27;;;;;;;4.57;0.85;;;10.30;99.90;;;;;;5040700;28;20045;-72
2023/10/15 11:51:56;;;;;;;3.92;1.00;;;10.30;99.90;;;;;;5051991;28;20570;-73
2023/10/15 11:54:30;;;;;;;5.85;1.35;;;10.30;99.90;;;;;;5039681;28;20502;-72
2023/10/15 11:56:59;;;;;;;6.07;1.38;;;10.40;99.90;;;;;;5019164;28;20247;-72
2023/10/15 11:59:26;;;;;;;5.32;0.93;;;10.40;99.90;;;;;;5023143;28;20037;-72
2023/10/15 12:01:53;;;;;;;6.72;0.93;;;10.40;99.90;;;;;;5024483;28;20040;-73
2023/10/15 12:04:19;;;;;;;6.10;1.10;;;10.50;99.90;;;;;;5041167;28;20044;-72
2023/10/15 12:06:48;;;;;;;5.28;0.98;;;10.50;99.90;;;;;;5019324;28;20041;-72
2023/10/15 12:09:17;;;;;;;6.05;1.10;;;10.50;99.90;;;;;;5023575;28;20056;-72
2023/10/15 12:11:46;;;;;;;5.35;0.70;;;10.50;99.90;;;;;;5032966;28;20037;-72
2023/10/15 12:14:12;;;;;;;4.93;1.07;;;10.60;99.90;;;;;;5035713;28;20041;-72
2023/10/15 12:16:41;;;;;;;4.53;1.27;;;10.70;99.90;;;;;;5020347;28;20307;-73
2023/10/15 12:19:10;;;;;;;5.35;1.40;;;10.80;99.90;;;;;;5041769;28;20395;-74
2023/10/15 12:21:37;;;;;;;6.20;1.40;;;10.80;99.90;;;;;;5039180;28;20095;-73
2023/10/15 12:24:05;;;;;;;2.85;0.80;;;10.80;99.90;;;;;;5021523;28;20049;-73
2023/10/15 12:26:31;;;;;;;9.35;1.30;;;10.80;99.90;;;;;;5019938;28;20041;-73
2023/10/15 12:28:57;;;;;;;6.03;0.70;;;10.70;99.90;;;;;;5017477;28;20048;-73
2023/10/15 12:31:24;;;;;;;5.53;0.90;;;10.70;99.90;;;;;;5044927;28;20088;-73
2023/10/15 12:33:50;;;;;;;3.63;0.70;;;10.70;99.90;;;;;;5024670;28;20499;-73
2023/10/15 12:36:16;;;;;;;5.45;1.15;;;10.80;99.90;;;;;;5037471;28;20044;-73
2023/10/15 12:38:43;;;;;;;4.57;0.88;;;10.80;99.90;;;;;;5040806;28;20048;-74
2023/10/15 12:41:10;;;;;;;6.15;1.00;;;10.80;99.90;;;;;;5039359;28;20053;-74
2023/10/15 12:43:37;;;;;;;7.35;1.70;;;10.90;99.90;;;;;;5041990;28;20044;-74
2023/10/15 12:46:03;;;;;;;6.05;1.23;;;10.90;99.90;;;;;;5021789;28;20511;-73
2023/10/15 12:48:29;;;;;;;4.93;0.95;;;10.90;99.90;;;;;;5025838;28;20052;-74
2023/10/15 12:50:56;;;;;;;4.20;0.82;;;10.80;99.90;;;;;;5023875;28;20044;-73
2023/10/15 12:53:25;;;;;;;5.68;1.13;;;10.80;99.90;;;;;;5023180;28;20412;-77
2023/10/15 12:55:51;;;;;;;5.07;1.13;;;10.70;99.90;;;;;;5043460;28;20045;-77
2023/10/15 12:58:18;;;;;;;6.38;1.35;;;10.50;99.90;;;;;;5036500;28;20498;-77
2023/10/15 13:00:44;;;;;;;5.45;1.13;;;10.40;99.90;;;;;;5044170;28;20380;-77
2023/10/15 13:03:12;;;;;;;7.00;1.30;;;10.20;99.90;;;;;;5042131;28;20045;-77
2023/10/15 13:05:38;;;;;;;5.10;1.27;;;10.10;99.90;;;;;;5056521;28;20106;-77
2023/10/15 13:08:06;;;;;;;4.78;1.00;;;10.10;99.90;;;;;;5042521;28;20041;-77
2023/10/15 13:10:32;;;;;;;6.05;1.00;;;10.00;99.90;;;;;;5036045;28;20491;-77
2023/10/15 13:12:59;;;;;;;5.18;1.13;;;10.00;99.90;;;;;;5039606;28;20044;-78
2023/10/15 13:15:25;;;;;;;5.18;1.08;;;10.00;99.90;;;;;;5042694;28;20041;-77
2023/10/15 13:17:54;;;;;;;4.40;1.00;;;10.10;99.90;;;;;;5026313;28;20043;-77
2023/10/15 13:20:23;;;;;;;4.72;1.10;;;10.20;99.90;;;;;;5042422;28;20052;-76
2023/10/15 13:22:49;;;;;;;4.50;1.35;;;10.20;99.90;;;;;;5036896;28;20553;-77